createdAt,value
2019-01-12T00:02:29.141Z,17.50
2019-01-12T00:05:18.611Z,19.67
2019-01-12T00:08:08.228Z,17.90
2019-01-12T00:10:57.337Z,15.80
2019-01-12T00:13:46.701Z,15.70
2019-01-12T00:16:35.845Z,14.63
2019-01-12T00:19:05.934Z,15.97
2019-01-12T00:21:54.411Z,15.10
2019-01-12T00:24:43.456Z,13.40
2019-01-12T00:27:32.410Z,13.60
2019-01-12T00:30:21.538Z,12.70
2019-01-12T00:33:11.333Z,13.23
2019-01-12T00:36:00.038Z,13.70
2019-01-12T00:38:50.669Z,13.03
2019-01-12T00:41:39.415Z,13.43
2019-01-12T00:44:28.593Z,12.83
2019-01-12T00:47:17.276Z,12.17
2019-01-12T00:50:07.973Z,13.33
2019-01-12T00:52:56.693Z,11.77
2019-01-12T00:55:45.325Z,11.70
2019-01-12T00:58:34.494Z,10.97
2019-01-12T01:01:23.374Z,13.10
2019-01-12T01:04:12.261Z,12.50
2019-01-12T01:07:01.402Z,11.50
2019-01-12T01:09:50.055Z,12.17
2019-01-12T01:12:38.480Z,11.93
2019-01-12T01:15:27.166Z,13.00
2019-01-12T01:18:00.216Z,13.60
2019-01-12T01:20:49.243Z,13.93
2019-01-12T01:23:37.979Z,13.80
2019-01-12T01:26:26.276Z,14.77
2019-01-12T01:29:15.201Z,14.70
2019-01-12T01:32:04.381Z,14.80
2019-01-12T01:34:53.469Z,14.73
2019-01-12T01:37:42.419Z,16.90
2019-01-12T01:40:31.604Z,16.23
2019-01-12T01:43:20.557Z,16.30
2019-01-12T01:46:08.835Z,16.10
2019-01-12T01:48:38.973Z,17.07
2019-01-12T01:51:28.019Z,16.13
2019-01-12T01:54:17.256Z,17.93
2019-01-12T01:57:06.256Z,15.97
2019-01-12T01:59:54.900Z,16.47
2019-01-12T02:02:43.815Z,15.53
2019-01-12T02:05:32.452Z,16.50
2019-01-12T02:08:21.650Z,14.90
2019-01-12T02:11:10.380Z,15.53
2019-01-12T02:13:59.705Z,16.43
2019-01-12T02:16:48.259Z,16.50
2019-01-12T02:19:37.107Z,17.20
2019-01-12T02:22:26.007Z,18.03
2019-01-12T02:25:15.086Z,19.53
2019-01-12T02:28:04.027Z,19.07
2019-01-12T02:30:53.081Z,21.00
2019-01-12T02:33:41.720Z,23.30
2019-01-12T02:36:30.708Z,27.17
2019-01-12T02:39:08.236Z,28.87
2019-01-12T02:41:57.158Z,25.90
2019-01-12T02:44:45.860Z,24.13
2019-01-12T02:47:34.268Z,25.03
2019-01-12T02:50:22.935Z,25.27
2019-01-12T02:53:11.807Z,23.33
2019-01-12T02:56:00.919Z,22.83
2019-01-12T02:58:49.822Z,24.97
2019-01-12T03:01:38.889Z,23.80
2019-01-12T03:04:28.514Z,22.87
2019-01-12T03:07:17.436Z,24.10
2019-01-12T03:10:08.253Z,23.87
2019-01-12T03:12:57.543Z,24.70
2019-01-12T03:15:45.875Z,26.83
2019-01-12T03:18:34.914Z,28.93
2019-01-12T03:21:24.051Z,28.17
2019-01-12T03:24:12.706Z,28.53
2019-01-12T03:27:01.839Z,26.20
2019-01-12T03:29:50.742Z,24.13
2019-01-12T03:32:39.541Z,25.20
2019-01-12T03:35:28.990Z,23.20
2019-01-12T03:38:17.787Z,25.17
2019-01-12T03:41:06.743Z,24.80
2019-01-12T03:43:55.017Z,23.87
2019-01-12T03:46:44.024Z,22.17
2019-01-12T03:49:32.829Z,23.30
2019-01-12T03:52:21.909Z,24.93
2019-01-12T03:55:10.951Z,24.30
2019-01-12T03:57:59.990Z,22.23
2019-01-12T04:00:48.348Z,23.97
2019-01-12T04:03:37.663Z,25.20
2019-01-12T04:06:27.206Z,25.90
2019-01-12T04:09:16.186Z,25.33
2019-01-12T04:12:05.150Z,26.03
2019-01-12T04:14:54.008Z,24.50
2019-01-12T04:17:43.346Z,25.00
2019-01-12T04:20:31.864Z,24.30
2019-01-12T04:23:20.417Z,21.60
2019-01-12T04:26:09.845Z,21.77
2019-01-12T04:28:39.812Z,21.70
2019-01-12T04:31:29.235Z,22.13
2019-01-12T04:34:18.337Z,20.43
2019-01-12T04:37:06.844Z,22.60
2019-01-12T04:39:55.840Z,20.63
2019-01-12T04:42:45.259Z,22.50
2019-01-12T04:45:34.261Z,21.90
2019-01-12T04:48:23.698Z,21.10
2019-01-12T04:51:12.193Z,19.60
2019-01-12T04:54:00.590Z,20.77
2019-01-12T04:56:31.513Z,19.43
2019-01-12T04:59:20.600Z,21.87
2019-01-12T05:02:09.535Z,19.90
2019-01-12T05:04:58.286Z,17.33
2019-01-12T05:07:46.924Z,18.17
2019-01-12T05:10:35.372Z,17.37
2019-01-12T05:13:24.766Z,17.40
2019-01-12T05:16:13.266Z,16.63
2019-01-12T05:19:02.149Z,17.30
2019-01-12T05:21:51.342Z,15.80
2019-01-12T05:24:37.282Z,16.20
2019-01-12T05:27:26.366Z,15.30
2019-01-12T05:30:17.685Z,14.87
2019-01-12T05:33:06.604Z,15.53
2019-01-12T05:35:55.751Z,14.97
2019-01-12T05:38:25.827Z,15.80
2019-01-12T05:41:14.562Z,15.17
2019-01-12T05:44:03.618Z,14.97
2019-01-12T05:46:52.464Z,16.17
2019-01-12T05:49:40.915Z,15.13
2019-01-12T05:52:29.829Z,14.10
2019-01-12T05:55:18.776Z,14.07
2019-01-12T05:58:07.658Z,14.00
2019-01-12T06:00:56.824Z,13.30
2019-01-12T06:03:45.462Z,13.23
2019-01-12T06:06:15.557Z,12.33
2019-01-12T06:09:05.873Z,14.63
2019-01-12T06:11:54.368Z,12.47
2019-01-12T06:14:43.356Z,12.13
2019-01-12T06:17:32.498Z,13.53
2019-01-12T06:20:21.313Z,17.70
2019-01-12T06:23:10.545Z,19.93
2019-01-12T06:26:03.828Z,19.40
2019-01-12T06:28:50.059Z,15.57
2019-01-12T06:31:39.193Z,17.50
2019-01-12T06:34:27.929Z,17.90
2019-01-12T06:37:17.095Z,23.73
2019-01-12T06:40:08.418Z,22.93
2019-01-12T06:42:57.956Z,15.10
2019-01-12T06:45:49.297Z,16.87
2019-01-12T06:48:38.817Z,16.00
2019-01-12T06:51:28.375Z,22.13
2019-01-12T06:54:17.108Z,27.57
2019-01-12T06:57:05.968Z,20.43
2019-01-12T06:59:54.614Z,26.23
2019-01-12T07:02:43.825Z,23.60
2019-01-12T07:05:32.520Z,24.73
2019-01-12T07:08:21.709Z,23.97
2019-01-12T07:11:10.305Z,21.87
2019-01-12T07:13:59.174Z,21.17
2019-01-12T07:16:48.327Z,20.07
2019-01-12T07:19:37.516Z,17.47
2019-01-12T07:22:26.501Z,19.27
2019-01-12T07:25:15.495Z,17.03
2019-01-12T07:28:04.345Z,17.53
2019-01-12T07:30:53.714Z,17.93
2019-01-12T07:33:43.040Z,17.30
2019-01-12T07:36:32.082Z,16.67
2019-01-12T07:39:20.637Z,17.17
2019-01-12T07:42:08.988Z,16.93
2019-01-12T07:44:57.630Z,16.27
2019-01-12T07:47:46.683Z,16.03
2019-01-12T07:50:35.859Z,16.93
2019-01-12T07:53:24.845Z,16.60
2019-01-12T07:56:13.728Z,17.63
2019-01-12T07:59:02.981Z,18.07
2019-01-12T08:01:51.714Z,18.73
2019-01-12T08:04:40.765Z,20.90
2019-01-12T08:07:30.123Z,20.40
2019-01-12T08:10:24.290Z,19.73
2019-01-12T08:13:14.021Z,21.93
2019-01-12T08:16:03.042Z,20.77
2019-01-12T08:18:52.227Z,21.00
2019-01-12T08:21:41.216Z,20.47
2019-01-12T08:24:30.670Z,20.63
2019-01-12T08:27:19.676Z,20.30
2019-01-12T08:30:11.406Z,20.47
2019-01-12T08:33:00.826Z,20.87
2019-01-12T08:35:49.423Z,20.10
2019-01-12T08:38:38.628Z,21.23
2019-01-12T08:41:27.635Z,19.80
2019-01-12T08:44:17.001Z,20.60
2019-01-12T08:47:05.408Z,20.07
2019-01-12T08:49:54.658Z,22.67
2019-01-12T08:52:43.932Z,23.73
2019-01-12T08:55:34.752Z,22.47
2019-01-12T08:58:23.822Z,22.67
2019-01-12T09:01:12.855Z,21.63
2019-01-12T09:04:01.429Z,23.03
2019-01-12T09:06:50.164Z,24.30
2019-01-12T09:09:38.958Z,23.53
2019-01-12T09:12:28.457Z,24.10
2019-01-12T09:15:17.374Z,25.07
2019-01-12T09:18:07.292Z,24.33
2019-01-12T09:20:56.180Z,24.10
2019-01-12T09:23:45.375Z,24.40
2019-01-12T09:26:34.812Z,23.30
2019-01-12T09:29:23.270Z,23.53
2019-01-12T09:32:12.999Z,24.77
2019-01-12T09:35:02.045Z,23.90
2019-01-12T09:37:50.997Z,24.30
2019-01-12T09:40:39.791Z,24.60
2019-01-12T09:43:29.014Z,24.80
2019-01-12T09:46:18.539Z,24.20
2019-01-12T09:49:07.980Z,23.43
2019-01-12T09:51:56.661Z,22.37
2019-01-12T09:54:45.706Z,23.10
2019-01-12T09:57:34.851Z,24.20
2019-01-12T10:00:28.041Z,23.13
2019-01-12T10:03:17.194Z,23.67
2019-01-12T10:06:06.641Z,24.57
2019-01-12T10:08:56.118Z,24.57
2019-01-12T10:11:44.629Z,22.43
2019-01-12T10:14:34.143Z,24.50
2019-01-12T10:17:23.198Z,24.73
2019-01-12T10:20:15.093Z,24.20
2019-01-12T10:23:03.888Z,24.47
2019-01-12T10:25:53.194Z,23.63
2019-01-12T10:28:42.574Z,23.77
2019-01-12T10:31:31.175Z,21.63
2019-01-12T10:34:20.004Z,21.90
2019-01-12T10:37:08.939Z,23.50
2019-01-12T10:39:58.452Z,22.00
2019-01-12T10:42:48.327Z,22.10
2019-01-12T10:45:37.350Z,22.40
2019-01-12T10:48:25.953Z,22.53
2019-01-12T10:51:14.922Z,21.97
2019-01-12T10:54:04.162Z,22.37
2019-01-12T10:56:54.154Z,22.03
2019-01-12T10:59:43.255Z,22.00
2019-01-12T11:02:33.389Z,21.23
2019-01-12T11:05:22.334Z,20.63
2019-01-12T11:08:11.892Z,21.20
2019-01-12T11:11:00.863Z,20.63
2019-01-12T11:13:49.727Z,20.07
2019-01-12T11:16:38.916Z,20.53
2019-01-12T11:19:28.253Z,19.80
2019-01-12T11:22:17.726Z,20.17
2019-01-12T11:25:07.817Z,20.50
2019-01-12T11:27:56.574Z,19.40
2019-01-12T11:30:45.836Z,19.93
2019-01-12T11:33:34.799Z,21.37
2019-01-12T11:36:24.497Z,20.93
2019-01-12T11:39:13.792Z,21.30
2019-01-12T11:42:02.577Z,20.93
2019-01-12T11:44:51.965Z,21.20
2019-01-12T11:47:41.184Z,20.17
2019-01-12T11:50:30.301Z,21.97
2019-01-12T11:53:19.996Z,20.50
2019-01-12T11:56:08.724Z,20.20
2019-01-12T11:58:58.390Z,18.60
2019-01-12T12:01:47.588Z,19.93
2019-01-12T12:04:38.796Z,21.13
2019-01-12T12:07:27.827Z,20.87
2019-01-12T12:10:17.487Z,19.70
2019-01-12T12:13:06.145Z,17.93
2019-01-12T12:15:55.089Z,18.33
2019-01-12T12:18:44.443Z,19.37
2019-01-12T12:21:33.464Z,18.90
2019-01-12T12:24:22.369Z,17.57
2019-01-12T12:27:11.036Z,16.70
2019-01-12T12:30:00.195Z,17.60
2019-01-12T12:32:49.812Z,18.60
2019-01-12T12:35:39.302Z,17.43
2019-01-12T12:38:28.504Z,18.30
2019-01-12T12:41:18.084Z,17.73
2019-01-12T12:44:07.380Z,17.80
2019-01-12T12:46:56.279Z,17.77
2019-01-12T12:49:45.589Z,17.50
2019-01-12T12:52:34.831Z,16.37
2019-01-12T12:55:24.309Z,15.93
2019-01-12T12:58:32.894Z,17.20
2019-01-12T13:01:21.998Z,17.00
2019-01-12T13:04:11.281Z,16.07
2019-01-12T13:07:00.488Z,16.80
2019-01-12T13:09:49.917Z,16.30
2019-01-12T13:12:39.032Z,15.90
2019-01-12T13:15:28.471Z,15.13
2019-01-12T13:18:17.206Z,14.93
2019-01-12T13:21:08.659Z,13.80
2019-01-12T13:24:00.228Z,13.67
2019-01-12T13:26:49.758Z,15.83
2019-01-12T13:29:22.439Z,15.10
2019-01-12T13:31:51.994Z,15.67
2019-01-12T13:34:30.260Z,15.27
2019-01-12T13:37:00.815Z,14.90
2019-01-12T13:39:32.130Z,12.93
2019-01-12T13:42:06.050Z,14.30
2019-01-12T13:44:36.419Z,14.80
2019-01-12T13:47:06.508Z,14.40
2019-01-12T13:49:38.395Z,14.00
2019-01-12T13:52:09.975Z,13.17
2019-01-12T13:54:40.396Z,12.40
2019-01-12T13:57:29.311Z,12.70
2019-01-12T14:00:38.116Z,13.03
2019-01-12T14:03:26.689Z,13.17
2019-01-12T14:06:15.736Z,14.43
2019-01-12T14:08:53.013Z,13.40
2019-01-12T14:11:42.085Z,13.60
2019-01-12T14:14:31.459Z,13.00
2019-01-12T14:17:20.839Z,13.20
2019-01-12T14:20:14.196Z,14.07
2019-01-12T14:23:03.463Z,13.03
2019-01-12T14:25:53.056Z,12.87
2019-01-12T14:28:42.508Z,14.00
2019-01-12T14:31:31.699Z,12.57
2019-01-12T14:34:20.485Z,11.90
2019-01-12T14:37:09.597Z,13.17
2019-01-12T14:39:58.611Z,11.97
2019-01-12T14:42:47.995Z,12.33
2019-01-12T14:45:37.470Z,11.20
2019-01-12T14:48:26.567Z,12.00
2019-01-12T14:51:15.790Z,11.23
2019-01-12T14:54:05.190Z,11.50
2019-01-12T14:56:54.669Z,10.23
2019-01-12T14:59:43.396Z,11.20
2019-01-12T15:02:32.851Z,10.60
2019-01-12T15:05:23.898Z,11.03
2019-01-12T15:08:13.252Z,10.00
2019-01-12T15:11:02.203Z,10.40
2019-01-12T15:13:50.618Z,9.87
2019-01-12T15:16:39.549Z,10.90
2019-01-12T15:19:28.215Z,11.37
2019-01-12T15:22:19.658Z,11.50
2019-01-12T15:25:09.245Z,10.80
2019-01-12T15:27:42.781Z,12.07
2019-01-12T15:30:33.106Z,11.17
2019-01-12T15:33:22.581Z,11.13
2019-01-12T15:36:11.381Z,11.60
2019-01-12T15:39:01.735Z,11.20
2019-01-12T15:41:50.731Z,11.73
2019-01-12T15:44:20.859Z,13.13
2019-01-12T15:47:10.177Z,12.77
2019-01-12T15:50:01.662Z,12.30
2019-01-12T15:52:51.019Z,12.97
2019-01-12T15:55:39.679Z,13.80
2019-01-12T15:58:28.336Z,14.70
2019-01-12T16:01:17.641Z,13.83
2019-01-12T16:04:07.314Z,15.23
2019-01-12T16:06:56.422Z,14.80
2019-01-12T16:09:45.638Z,16.43
2019-01-12T16:12:34.649Z,14.80
2019-01-12T16:15:25.722Z,16.43
2019-01-12T16:18:14.609Z,16.73
2019-01-12T16:21:03.500Z,16.40
2019-01-12T16:23:53.154Z,17.33
2019-01-12T16:26:42.007Z,17.33
2019-01-12T16:29:31.339Z,17.90
2019-01-12T16:32:20.592Z,17.90
2019-01-12T16:35:09.733Z,18.93
2019-01-12T16:37:58.860Z,16.73
2019-01-12T16:40:48.071Z,16.97
2019-01-12T16:43:18.702Z,15.00
2019-01-12T16:46:07.803Z,16.73
2019-01-12T16:48:57.306Z,15.70
2019-01-12T16:51:46.513Z,15.57
2019-01-12T16:54:35.813Z,15.80
2019-01-12T16:57:24.971Z,15.83
2019-01-12T17:00:18.382Z,14.87
2019-01-12T17:03:07.735Z,14.60
2019-01-12T17:05:57.674Z,15.73
2019-01-12T17:08:46.222Z,13.93
2019-01-12T17:11:35.357Z,14.73
2019-01-12T17:14:24.751Z,14.80
2019-01-12T17:17:14.314Z,14.67
2019-01-12T17:20:03.217Z,15.33
2019-01-12T17:22:53.229Z,15.87
2019-01-12T17:25:42.507Z,15.03
2019-01-12T17:28:37.298Z,16.10
2019-01-12T17:31:22.576Z,14.00
2019-01-12T17:34:11.829Z,14.70
2019-01-12T17:37:01.395Z,13.47
2019-01-12T17:39:50.690Z,13.97
2019-01-12T17:42:40.036Z,14.20
2019-01-12T17:45:28.760Z,14.20
2019-01-12T17:48:18.830Z,12.70
2019-01-12T17:50:55.396Z,12.80
2019-01-12T17:53:44.371Z,13.37
2019-01-12T17:56:33.937Z,12.53
2019-01-12T17:59:23.305Z,13.70
2019-01-12T18:02:12.117Z,15.10
2019-01-12T18:05:01.302Z,14.47
2019-01-12T18:07:50.611Z,13.40
2019-01-12T18:10:39.644Z,10.67
2019-01-12T18:13:28.718Z,9.53
2019-01-12T18:16:17.789Z,9.13
2019-01-12T18:19:07.049Z,8.07
2019-01-12T18:21:37.190Z,7.40
2019-01-12T18:24:26.589Z,7.10
2019-01-12T18:27:15.837Z,7.10
2019-01-12T18:30:06.707Z,6.83
2019-01-12T18:32:56.109Z,5.30
2019-01-12T18:35:45.821Z,6.20
2019-01-12T18:38:35.247Z,6.47
2019-01-12T18:41:24.271Z,6.47
2019-01-12T18:44:13.007Z,5.43
2019-01-12T18:47:02.102Z,5.50
2019-01-12T18:49:51.765Z,6.00
2019-01-12T18:52:41.140Z,5.53
2019-01-12T18:55:30.428Z,6.20
2019-01-12T18:58:20.338Z,6.43
2019-01-12T19:01:10.057Z,6.90
2019-01-12T19:03:59.390Z,6.80
2019-01-12T19:06:48.562Z,6.63
2019-01-12T19:09:38.672Z,6.27
2019-01-12T19:12:27.969Z,6.40
2019-01-12T19:15:24.745Z,6.13
2019-01-12T19:18:13.877Z,6.90
2019-01-12T19:21:03.016Z,6.67
2019-01-12T19:23:51.719Z,6.90
2019-01-12T19:26:37.178Z,7.10
2019-01-12T19:29:26.353Z,7.07
2019-01-12T19:32:15.397Z,7.83
2019-01-12T19:35:04.823Z,8.10
2019-01-12T19:37:53.897Z,8.87
2019-01-12T19:40:44.540Z,9.20
2019-01-12T19:43:33.697Z,9.97
2019-01-12T19:46:23.208Z,10.40
2019-01-12T19:49:12.858Z,10.70
2019-01-12T19:52:01.892Z,9.80
2019-01-12T19:54:55.107Z,9.20
2019-01-12T19:57:44.242Z,10.03
2019-01-12T20:00:34.923Z,10.37
2019-01-12T20:03:24.041Z,10.07
2019-01-12T20:06:17.239Z,10.00
2019-01-12T20:09:06.932Z,10.80
2019-01-12T20:11:55.514Z,10.20
2019-01-12T20:14:44.578Z,10.90
2019-01-12T20:17:33.915Z,10.70
2019-01-12T20:20:27.342Z,10.30
2019-01-12T20:23:17.029Z,10.03
2019-01-12T20:26:09.530Z,10.47
2019-01-12T20:28:58.917Z,10.83
2019-01-12T20:32:26.318Z,11.20
2019-01-12T20:35:58.972Z,11.17
2019-01-12T20:39:26.911Z,11.67
2019-01-12T20:42:54.421Z,10.77
2019-01-12T20:46:34.056Z,10.10
2019-01-12T20:49:34.208Z,11.77
2019-01-12T20:52:59.452Z,9.80
2019-01-12T20:56:24.714Z,10.70
2019-01-12T20:59:28.287Z,11.10
2019-01-12T21:03:09.159Z,12.27
2019-01-12T21:06:48.178Z,11.23
2019-01-12T21:10:14.324Z,10.37
2019-01-12T21:13:54.614Z,10.93
2019-01-12T21:16:54.372Z,10.20
2019-01-12T21:19:48.027Z,10.07
2019-01-12T21:22:15.968Z,10.10
2019-01-12T21:24:46.451Z,11.73
2019-01-12T21:27:16.924Z,11.00
2019-01-12T21:29:47.357Z,10.43
2019-01-12T21:32:17.968Z,9.60
2019-01-12T21:34:48.274Z,9.03
2019-01-12T21:37:18.586Z,9.03
2019-01-12T21:39:48.729Z,9.00
2019-01-12T21:42:19.088Z,8.93
2019-01-12T21:44:52.257Z,8.87
2019-01-12T21:47:22.499Z,8.83
2019-01-12T21:49:52.546Z,9.50
2019-01-12T21:52:22.869Z,9.20
2019-01-12T21:54:53.079Z,9.97
2019-01-12T21:57:23.478Z,10.07
2019-01-12T21:59:53.743Z,9.73
2019-01-12T22:02:23.938Z,10.50
2019-01-12T22:04:54.652Z,10.53
2019-01-12T22:07:24.643Z,10.63
2019-01-12T22:09:55.052Z,10.20
2019-01-12T22:12:25.237Z,11.47
2019-01-12T22:14:55.440Z,11.47
2019-01-12T22:17:44.499Z,11.60
2019-01-12T22:20:33.802Z,11.80
2019-01-12T22:23:23.369Z,10.50
2019-01-12T22:26:12.366Z,12.47
2019-01-12T22:29:01.754Z,11.10
2019-01-12T22:31:50.773Z,11.60
2019-01-12T22:34:39.987Z,11.60
2019-01-12T22:37:29.340Z,12.27
2019-01-12T22:40:19.466Z,11.80
2019-01-12T22:43:27.532Z,12.13
2019-01-12T22:46:04.255Z,12.40
2019-01-12T22:48:53.306Z,11.97
2019-01-12T22:51:42.425Z,12.57
2019-01-12T22:54:31.594Z,12.37
2019-01-12T22:57:21.255Z,12.40
2019-01-12T23:00:28.287Z,12.17
2019-01-12T23:03:17.674Z,12.50
2019-01-12T23:06:06.457Z,13.20
2019-01-12T23:08:55.247Z,13.00
2019-01-12T23:11:44.199Z,13.43
2019-01-12T23:14:33.339Z,13.90
2019-01-12T23:17:03.669Z,12.60
2019-01-12T23:19:52.959Z,12.63
2019-01-12T23:22:42.149Z,13.80
2019-01-12T23:25:31.244Z,13.00
2019-01-12T23:28:20.488Z,12.80
2019-01-12T23:31:09.389Z,13.37
2019-01-12T23:34:00.193Z,13.83
2019-01-12T23:36:50.191Z,12.70
2019-01-12T23:39:50.692Z,12.20
2019-01-12T23:42:39.874Z,12.53
2019-01-12T23:45:29.490Z,12.70
2019-01-12T23:48:18.413Z,12.27
2019-01-12T23:51:07.683Z,14.10
2019-01-12T23:53:56.475Z,13.80
2019-01-12T23:56:45.732Z,12.20
2019-01-12T23:59:34.872Z,13.43
